Time;durP1;ratioP1;P1;durP2;ratioP2;P2;SDS_P1;SDS_P2;PMS_P1;PMS_P2;Temp;Humidity;BMP_temperature;BMP_pressure;BME280_temperature;BME280_humidity;BME280_pressure;Samples;Min_cycle;Max_cycle;Signal;HPM_P1;HPM_P2
2022/10/06 00:01:57;;;;;;;5.38;2.13;;;;;;;-146.58;100.00;69501.63;4992431;28;20046;-62
2022/10/06 00:04:22;;;;;;;8.23;4.03;;;;;;;-146.58;100.00;69501.63;4993435;28;20030;-61
2022/10/06 00:06:47;;;;;;;3.05;2.08;;;;;;;-146.58;100.00;69501.63;4991703;28;20026;-62
2022/10/06 00:09:13;;;;;;;5.25;2.28;;;;;;;-146.58;100.00;69501.63;4993180;28;20552;-61
2022/10/06 00:11:38;;;;;;;6.28;1.80;;;;;;;-146.58;100.00;69501.63;4992163;28;20417;-61
2022/10/06 00:14:03;;;;;;;7.20;1.95;;;;;;;-146.58;100.00;69501.63;4992748;28;20030;-61
2022/10/06 00:16:29;;;;;;;7.18;3.50;;;;;;;-146.58;100.00;69501.63;4993900;28;20030;-61
2022/10/06 00:18:55;;;;;;;13.90;4.57;;;;;;;-146.58;100.00;69501.63;4991560;28;20035;-61
2022/10/06 00:21:21;;;;;;;7.45;3.33;;;;;;;-146.58;100.00;69501.63;4993218;28;20053;-61
2022/10/06 00:23:46;;;;;;;4.70;2.78;;;;;;;-146.58;100.00;69501.63;4991467;28;20053;-61
2022/10/06 00:26:15;;;;;;;7.95;3.25;;;;;;;-146.58;100.00;69501.63;4993103;28;20045;-61
2022/10/06 00:28:41;;;;;;;10.48;3.15;;;;;;;-146.58;100.00;69501.63;4991665;28;20030;-61
2022/10/06 00:31:06;;;;;;;14.80;3.45;;;;;;;-146.58;100.00;69501.63;4992174;28;20061;-61
2022/10/06 00:33:32;;;;;;;5.63;3.42;;;;;;;-146.58;100.00;69501.63;4991903;28;20061;-61
2022/10/06 00:35:57;;;;;;;15.35;2.85;;;;;;;-146.58;100.00;69501.63;4993357;28;20026;-62
2022/10/06 00:38:23;;;;;;;17.08;3.70;;;;;;;-146.58;100.00;69501.63;4991077;28;20184;-62
2022/10/06 00:40:50;;;;;;;11.50;3.63;;;;;;;-146.58;100.00;69501.63;4992667;28;20038;-61
2022/10/06 00:43:53;;;;;;;11.52;3.75;;;;;;;-146.58;100.00;69501.63;4991200;28;20529;-61
2022/10/06 00:46:39;;;;;;;11.07;4.90;;;;;;;-146.58;100.00;69501.63;4993032;28;20037;-60
2022/10/06 00:49:23;;;;;;;8.20;3.20;;;;;;;-146.58;100.00;69501.63;4991130;28;20038;-60
2022/10/06 00:51:58;;;;;;;9.88;2.95;;;;;;;-146.58;100.00;69501.63;4990766;28;20060;-60
2022/10/06 00:54:26;;;;;;;8.07;4.38;;;;;;;-146.58;100.00;69501.63;4992538;28;20045;-60
2022/10/06 00:56:51;;;;;;;6.82;2.38;;;;;;;-146.58;100.00;69501.63;4991142;28;20026;-60
2022/10/06 00:59:18;;;;;;;8.23;3.92;;;;;;;-146.58;100.00;69501.63;4992011;28;20031;-60
2022/10/06 01:01:52;;;;;;;11.80;3.00;;;;;;;-146.58;100.00;69501.63;4991410;28;20080;-61
2022/10/06 01:04:19;;;;;;;13.63;3.63;;;;;;;-146.58;100.00;69501.63;4992590;28;20046;-60
2022/10/06 01:06:51;;;;;;;12.65;3.05;;;;;;;-146.58;100.00;69501.63;4990134;28;20022;-60
2022/10/06 01:09:18;;;;;;;15.70;5.07;;;;;;;-146.58;100.00;69501.63;4992095;28;20038;-60
2022/10/06 01:11:47;;;;;;;9.02;2.70;;;;;;;-146.58;100.00;69501.63;4991329;28;20027;-60
2022/10/06 01:14:13;;;;;;;;;;;;;;;-146.58;100.00;69501.63;4992046;28;20034;-59
2022/10/06 01:16:41;;;;;;;11.40;2.75;;;;;;;-146.58;100.00;69501.63;4991085;28;19964;-59
2022/10/06 01:19:18;;;;;;;24.67;4.30;;;;;;;-146.58;100.00;69501.63;4991924;28;20045;-60
2022/10/06 01:21:48;;;;;;;10.30;2.70;;;;;;;-146.58;100.00;69501.63;4990185;28;20049;-59
2022/10/06 01:24:16;;;;;;;13.43;2.90;;;;;;;-146.58;100.00;69501.63;4992028;28;20018;-61
2022/10/06 01:26:45;;;;;;;10.10;3.45;;;;;;;-146.58;100.00;69501.63;4990898;28;20022;-60
2022/10/06 01:29:11;;;;;;;10.80;3.30;;;;;;;-146.58;100.00;69501.63;4991264;28;20025;-61
2022/10/06 01:31:37;;;;;;;16.52;4.15;;;;;;;-146.58;100.00;69501.63;4990341;28;20498;-61
2022/10/06 01:34:02;;;;;;;19.52;3.92;;;;;;;-146.58;100.00;69501.63;4992418;28;20042;-60
2022/10/06 01:36:28;;;;;;;12.82;3.03;;;;;;;-146.58;100.00;69501.63;4991549;28;20665;-61
2022/10/06 01:38:53;;;;;;;22.73;4.90;;;;;;;-146.58;100.00;69501.63;4989889;28;20042;-61
2022/10/06 01:41:18;;;;;;;10.27;5.00;;;;;;;-146.58;100.00;69501.63;4991712;28;20092;-60
2022/10/06 01:43:44;;;;;;;19.33;2.92;;;;;;;-146.58;100.00;69501.63;4990034;28;20045;-61
2022/10/06 01:46:09;;;;;;;14.88;4.35;;;;;;;-146.58;100.00;69501.63;4991974;28;20030;-61
2022/10/06 01:48:35;;;;;;;10.25;3.05;;;;;;;-146.58;100.00;69501.63;4990074;28;20045;-61
2022/10/06 01:51:00;;;;;;;13.52;4.95;;;;;;;-146.58;100.00;69501.63;4991505;28;20404;-61
2022/10/06 01:53:26;;;;;;;11.82;3.33;;;;;;;-146.58;100.00;69501.63;4990273;28;20038;-61
2022/10/06 01:55:57;;;;;;;11.73;3.25;;;;;;;-146.58;100.00;69501.63;4991455;28;20394;-61
2022/10/06 01:58:23;;;;;;;8.98;3.78;;;;;;;-146.58;100.00;69501.63;4989893;28;20498;-61
2022/10/06 02:00:49;;;;;;;11.32;3.30;;;;;;;-146.58;100.00;69501.63;4991820;28;20030;-61
2022/10/06 02:03:15;;;;;;;12.40;2.97;;;;;;;-146.58;100.00;69501.63;4989911;28;20093;-61
2022/10/06 02:05:40;;;;;;;16.85;4.43;;;;;;;-146.58;100.00;69501.63;4991238;28;20031;-61
2022/10/06 02:08:05;;;;;;;18.17;3.83;;;;;;;-146.58;100.00;69501.63;4989760;28;20035;-61
2022/10/06 02:10:31;;;;;;;16.13;4.30;;;;;;;-146.58;100.00;69501.63;4991530;28;20414;-60
2022/10/06 02:12:56;;;;;;;10.82;4.95;;;;;;;-146.58;100.00;69501.63;4989982;28;20109;-61
2022/10/06 02:15:21;;;;;;;9.98;4.03;;;;;;;-146.58;100.00;69501.63;4991383;28;20019;-61
2022/10/06 02:17:47;;;;;;;22.27;5.25;;;;;;;-146.58;100.00;69501.63;4990234;28;20493;-61
2022/10/06 02:20:14;;;;;;;17.77;3.47;;;;;;;-146.58;100.00;69501.63;4995154;28;20030;-60
2022/10/06 02:22:40;;;;;;;17.60;3.75;;;;;;;-146.58;100.00;69501.63;4994213;28;20077;-60
2022/10/06 02:25:06;;;;;;;17.02;4.38;;;;;;;-146.58;100.00;69501.63;4995506;28;20026;-60
2022/10/06 02:27:31;;;;;;;13.70;2.50;;;;;;;-146.58;100.00;69501.63;4993929;28;20544;-63
2022/10/06 02:29:56;;;;;;;16.15;3.13;;;;;;;16.71;100.00;164936.75;4995142;28;20410;-63
2022/10/06 02:32:22;;;;;;;21.98;3.30;;;;;;;11.60;100.00;163597.31;4993374;28;20113;-62
2022/10/06 02:34:48;;;;;;;16.33;5.45;;;;;;;11.53;100.00;163578.41;4995045;28;20030;-61
2022/10/06 02:37:14;;;;;;;19.98;4.15;;;;;;;-146.58;100.00;69501.63;4993506;28;20458;-60
2022/10/06 02:39:40;;;;;;;19.15;5.25;;;;;;;11.48;100.00;163564.94;4995251;28;20041;-60
2022/10/06 02:42:06;;;;;;;8.48;3.67;;;;;;;11.43;100.00;163554.09;4993428;28;20121;-60
2022/10/06 02:44:31;;;;;;;17.83;4.05;;;;;;;11.42;100.00;163551.44;4995026;28;20025;-62
2022/10/06 02:46:56;;;;;;;9.00;4.43;;;;;;;11.40;100.00;163544.66;4993809;28;20038;-59
2022/10/06 02:49:22;;;;;;;26.48;5.53;;;;;;;11.37;100.00;163537.91;4994207;28;20359;-61
2022/10/06 02:51:47;;;;;;;10.95;2.70;;;;;;;11.35;100.00;163532.53;4993369;28;20053;-61
2022/10/06 02:54:12;;;;;;;15.05;3.88;;;;;;;11.32;100.00;163524.41;4995009;28;20031;-61
2022/10/06 02:56:38;;;;;;;14.50;3.17;;;;;;;11.29;100.00;163516.28;4993741;28;20026;-62
2022/10/06 02:59:03;;;;;;;11.85;3.97;;;;;;;11.27;100.00;163510.94;4994408;28;20494;-61
2022/10/06 03:01:28;;;;;;;13.20;2.30;;;;;;;11.23;100.00;163500.09;4994606;28;20058;-61
2022/10/06 03:03:54;;;;;;;7.63;2.40;;;;;;;11.21;100.00;163494.69;4993264;28;20042;-61
2022/10/06 03:06:25;;;;;;;9.95;2.60;;;;;;;11.19;100.00;163490.63;4994369;28;20438;-61
2022/10/06 03:08:55;;;;;;;10.65;2.85;;;;;;;11.16;100.00;163481.19;4992967;28;20065;-60
2022/10/06 03:11:28;;;;;;;17.25;5.55;;;;;;;11.08;100.00;163462.28;4994295;28;20036;-60
2022/10/06 03:13:54;;;;;;;20.42;4.45;;;;;;;11.06;100.00;163456.88;4993204;28;20633;-60
2022/10/06 03:16:22;;;;;;;25.38;3.47;;;;;;;11.03;100.00;163448.81;4994334;28;20034;-61
2022/10/06 03:18:49;;;;;;;11.25;4.47;;;;;;;10.99;100.00;163436.66;4992821;28;20045;-59
2022/10/06 03:21:20;;;;;;;9.07;2.67;;;;;;;10.95;100.00;163427.19;4994046;28;20037;-59
2022/10/06 03:23:47;;;;;;;12.65;3.05;;;;;;;10.75;100.00;163375.91;4992625;28;20092;-60
2022/10/06 03:26:14;;;;;;;20.92;3.70;;;;;;;10.92;100.00;163419.06;4994409;28;20034;-59
2022/10/06 03:28:40;;;;;;;17.92;4.40;;;;;;;10.93;100.00;163423.16;4992111;28;20198;-59
2022/10/06 03:31:06;;;;;;;10.07;3.50;;;;;;;10.86;100.00;163402.88;4993824;28;20061;-60
2022/10/06 03:33:32;;;;;;;29.13;4.80;;;;;;;10.87;100.00;163405.59;4991792;28;20038;-60
2022/10/06 03:36:04;;;;;;;11.25;2.83;;;;;;;10.84;100.00;163397.47;4994051;28;20026;-60
2022/10/06 03:38:33;;;;;;;23.40;5.25;;;;;;;10.77;100.00;163381.28;4992479;28;20054;-61
2022/10/06 03:41:03;;;;;;;13.50;5.45;;;;;;;10.74;100.00;163371.84;4994361;28;20027;-60
2022/10/06 03:43:28;;;;;;;13.10;4.03;;;;;;;10.68;100.00;163357.03;4991915;28;20042;-60
2022/10/06 03:45:55;;;;;;;15.85;3.53;;;;;;;-146.58;100.00;69501.63;4994135;28;20633;-60
2022/10/06 03:48:21;;;;;;;11.68;3.28;;;;;;;-146.58;100.00;69501.63;4992153;28;20394;-61
2022/10/06 03:50:54;;;;;;;10.80;3.67;;;;;;;-146.58;100.00;69501.63;4993568;28;20026;-61
2022/10/06 03:53:24;;;;;;;13.82;4.28;;;;;;;-146.58;100.00;69501.63;4992388;28;20608;-60
2022/10/06 03:55:50;;;;;;;16.80;4.00;;;;;;;-146.58;100.00;69501.63;4993968;28;20030;-60
2022/10/06 03:58:17;;;;;;;11.70;4.22;;;;;;;-146.58;100.00;69501.63;4991122;28;20053;-60
2022/10/06 04:00:42;;;;;;;15.18;4.28;;;;;;;-146.58;100.00;69501.63;4994220;28;20034;-60
2022/10/06 04:03:08;;;;;;;20.23;6.15;;;;;;;-146.58;100.00;69501.63;4992210;28;20042;-61
2022/10/06 04:05:33;;;;;;;24.55;4.97;;;;;;;-146.58;100.00;69501.63;4993607;28;20018;-61
2022/10/06 04:07:58;;;;;;;15.20;4.30;;;;;;;-146.58;100.00;69501.63;4992069;28;20050;-60
2022/10/06 04:10:24;;;;;;;25.08;5.00;;;;;;;-146.58;100.00;69501.63;4993602;28;20094;-60
2022/10/06 04:12:49;;;;;;;19.50;4.80;;;;;;;-146.58;100.00;69501.63;4991328;28;20054;-61
2022/10/06 04:15:14;;;;;;;7.63;3.35;;;;;;;-146.58;100.00;69501.63;4993041;28;20045;-60
2022/10/06 04:17:40;;;;;;;16.98;5.20;;;;;;;-146.58;100.00;69501.63;4991853;28;20046;-61
2022/10/06 04:20:06;;;;;;;17.38;4.97;;;;;;;-146.58;100.00;69501.63;4992950;28;20034;-61
2022/10/06 04:22:31;;;;;;;17.95;4.68;;;;;;;-146.58;100.00;69501.63;4991933;28;20034;-61
2022/10/06 04:24:56;;;;;;;15.88;3.17;;;;;;;-146.58;100.00;69501.63;4993539;28;20018;-62
2022/10/06 04:27:27;;;;;;;18.25;5.38;;;;;;;-146.58;100.00;69501.63;4991303;28;20442;-62
2022/10/06 04:29:53;;;;;;;12.60;4.03;;;;;;;-146.58;100.00;69501.63;4992960;28;20030;-61
2022/10/06 04:32:18;;;;;;;14.90;3.72;;;;;;;-146.58;100.00;69501.63;4991397;28;20046;-61
2022/10/06 04:34:43;;;;;;;12.63;3.55;;;;;;;-146.58;100.00;69501.63;4992999;28;20026;-61
2022/10/06 04:37:09;;;;;;;14.45;3.08;;;;;;;-146.58;100.00;69501.63;4991506;28;20046;-62
2022/10/06 04:39:36;;;;;;;18.20;4.85;;;;;;;-146.58;100.00;69501.63;4992959;28;20025;-62
2022/10/06 04:42:02;;;;;;;16.92;4.53;;;;;;;-146.58;100.00;69501.63;4991018;28;20054;-62
2022/10/06 04:44:27;;;;;;;10.40;3.97;;;;;;;-146.58;100.00;69501.63;4992902;28;20034;-61
2022/10/06 04:46:52;;;;;;;13.70;4.30;;;;;;;-146.58;100.00;69501.63;4991035;28;20061;-62
2022/10/06 04:49:18;;;;;;;22.45;6.47;;;;;;;-146.58;100.00;69501.63;4991857;28;20022;-62
2022/10/06 04:51:43;;;;;;;17.95;4.93;;;;;;;-146.58;100.00;69501.63;4991356;28;20038;-62
2022/10/06 04:54:09;;;;;;;15.02;3.58;;;;;;;-146.58;100.00;69501.63;4992622;28;20553;-62
2022/10/06 04:56:35;;;;;;;16.73;4.18;;;;;;;-146.58;100.00;69501.63;4990804;28;20515;-62
2022/10/06 04:59:00;;;;;;;12.93;4.13;;;;;;;-146.58;100.00;69501.63;4992271;28;20038;-60
2022/10/06 05:01:26;;;;;;;16.38;5.00;;;;;;;-146.58;100.00;69501.63;4992360;28;20022;-60
2022/10/06 05:03:54;;;;;;;18.13;5.72;;;;;;;-146.58;100.00;69501.63;4990598;28;20097;-61
2022/10/06 05:06:22;;;;;;;10.67;3.07;;;;;;;-146.58;100.00;69501.63;4992218;28;20031;-60
2022/10/06 05:08:50;;;;;;;17.60;6.07;;;;;;;-146.58;100.00;69501.63;4991233;28;20048;-61
2022/10/06 05:11:15;;;;;;;21.27;5.93;;;;;;;-146.58;100.00;69501.63;4991823;28;20468;-61
2022/10/06 05:13:42;;;;;;;19.45;4.70;;;;;;;-146.58;100.00;69501.63;4990927;28;20050;-61
2022/10/06 05:16:10;;;;;;;18.50;3.85;;;;;;;-146.58;100.00;69501.63;4992416;28;20022;-61
2022/10/06 05:18:35;;;;;;;19.70;4.53;;;;;;;-146.58;100.00;69501.63;4990422;28;20046;-61
2022/10/06 05:21:04;;;;;;;15.85;4.97;;;;;;;-146.58;100.00;69501.63;4992018;28;20025;-61
2022/10/06 05:23:30;;;;;;;;;;;;;;;-146.58;100.00;69501.63;4991501;28;20052;-61
2022/10/06 05:25:57;;;;;;;16.02;4.85;;;;;;;-146.58;100.00;69501.63;4992104;28;19910;-61
2022/10/06 05:28:25;;;;;;;18.10;4.88;;;;;;;-146.58;100.00;69501.63;4990080;28;20043;-60
2022/10/06 05:31:02;;;;;;;32.13;5.25;;;;;;;-146.58;100.00;69501.63;4991569;28;20034;-60
2022/10/06 05:33:30;;;;;;;12.82;3.78;;;;;;;-146.58;100.00;69501.63;4990338;28;20038;-61
2022/10/06 05:35:57;;;;;;;25.70;4.87;;;;;;;-146.58;100.00;69501.63;4991711;28;20153;-61
2022/10/06 05:38:23;;;;;;;14.27;3.45;;;;;;;-146.58;100.00;69501.63;4990184;28;20477;-60
2022/10/06 05:40:49;;;;;;;19.02;4.43;;;;;;;-146.58;100.00;69501.63;4991755;28;20037;-61
2022/10/06 05:43:15;;;;;;;18.00;5.72;;;;;;;-146.58;100.00;69501.63;4990280;28;20042;-61
2022/10/06 05:45:52;;;;;;;10.90;3.35;;;;;;;-146.58;100.00;69501.63;4990915;28;20033;-59
2022/10/06 05:48:17;;;;;;;12.05;3.67;;;;;;;-146.58;100.00;69501.63;4988508;28;20414;-59
2022/10/06 05:50:43;;;;;;;11.52;4.57;;;;;;;-146.58;100.00;69501.63;4991576;28;20022;-59
2022/10/06 05:53:08;;;;;;;17.95;4.13;;;;;;;-146.58;100.00;69501.63;4988821;28;20473;-59
2022/10/06 05:55:33;;;;;;;13.82;5.57;;;;;;;-146.58;100.00;69501.63;4990688;28;20092;-59
2022/10/06 05:57:58;;;;;;;19.75;6.10;;;;;;;-146.58;100.00;69501.63;4990248;28;20050;-59
2022/10/06 06:00:24;;;;;;;19.90;5.35;;;;;;;-146.58;100.00;69501.63;4991402;28;20022;-59
2022/10/06 06:02:49;;;;;;;16.35;5.10;;;;;;;-146.58;100.00;69501.63;4989570;28;20045;-59
2022/10/06 06:05:15;;;;;;;13.68;3.55;;;;;;;-146.58;100.00;69501.63;4991622;28;20498;-59
2022/10/06 06:07:40;;;;;;;21.67;5.97;;;;;;;-146.58;100.00;69501.63;4990466;28;20390;-59
2022/10/06 06:10:06;;;;;;;22.77;4.95;;;;;;;-146.58;100.00;69501.63;4990751;28;20045;-60
2022/10/06 06:12:31;;;;;;;13.32;4.60;;;;;;;-146.58;100.00;69501.63;4989817;28;20449;-59
2022/10/06 06:17:40;;;;;;;10.65;3.45;;;;;;;-146.58;100.00;69501.63;4989045;28;20112;-60
2022/10/06 06:20:06;;;;;;;17.95;4.22;;;;;;;-146.58;100.00;69501.63;4991450;28;20026;-59
2022/10/06 06:22:31;;;;;;;16.85;5.00;;;;;;;-146.58;100.00;69501.63;4989695;28;20034;-57
2022/10/06 06:24:56;;;;;;;13.70;4.32;;;;;;;-146.58;100.00;69501.63;4991163;28;20053;-60
2022/10/06 06:27:22;;;;;;;22.02;5.05;;;;;;;-146.58;100.00;69501.63;4991200;28;20034;-58
2022/10/06 06:29:47;;;;;;;15.73;4.90;;;;;;;-146.58;100.00;69501.63;4988340;28;20042;-57
2022/10/06 06:32:12;;;;;;;14.25;5.25;;;;;;;-146.58;100.00;69501.63;4988901;28;20053;-58
2022/10/06 06:34:38;;;;;;;22.80;4.38;;;;;;;-146.58;100.00;69501.63;4990106;28;20169;-58
2022/10/06 06:37:03;;;;;;;14.10;3.53;;;;;;;-146.58;100.00;69501.63;4990414;28;20022;-58
2022/10/06 06:39:28;;;;;;;24.83;3.97;;;;;;;-146.58;100.00;69501.63;4987373;28;20054;-57
2022/10/06 06:41:54;;;;;;;14.32;3.60;;;;;;;-146.58;100.00;69501.63;4990618;28;20489;-58
2022/10/06 06:44:19;;;;;;;26.73;6.22;;;;;;;-146.58;100.00;69501.63;4988808;28;20421;-58
2022/10/06 06:46:48;;;;;;;13.95;4.18;;;;;;;-146.58;100.00;69501.63;4988798;28;20043;-58
2022/10/06 06:49:14;;;;;;;14.60;4.10;;;;;;;-146.58;100.00;69501.63;4988476;28;20041;-58
2022/10/06 06:51:42;;;;;;;20.98;6.72;;;;;;;-146.58;100.00;69501.63;4990153;28;20443;-58
2022/10/06 06:54:09;;;;;;;20.83;5.30;;;;;;;-146.58;100.00;69501.63;4987284;28;20045;-58
2022/10/06 06:56:35;;;;;;;27.52;7.07;;;;;;;-146.58;100.00;69501.63;4990560;28;20034;-58
2022/10/06 06:59:07;;;;;;;10.52;4.43;;;;;;;-146.58;100.00;69501.63;4989006;28;20062;-58
2022/10/06 07:01:33;;;;;;;13.35;4.47;;;;;;;-146.58;100.00;69501.63;4989796;28;20022;-58
2022/10/06 07:03:58;;;;;;;16.17;4.05;;;;;;;-146.58;100.00;69501.63;4989763;28;20387;-58
2022/10/06 07:06:26;;;;;;;14.93;5.28;;;;;;;-146.58;100.00;69501.63;4993150;28;20029;-58
2022/10/06 07:08:52;;;;;;;14.57;4.95;;;;;;;-146.58;100.00;69501.63;4990961;28;20568;-58
2022/10/06 07:11:23;;;;;;;14.82;4.93;;;;;;;-146.58;100.00;69501.63;4993383;28;20046;-58
2022/10/06 07:13:53;;;;;;;22.85;6.13;;;;;;;-146.58;100.00;69501.63;4991778;28;20046;-58
2022/10/06 07:27:27;;;;;;;13.68;4.72;;;;;;;-146.58;100.00;69501.63;4995178;28;20037;-58
2022/10/06 07:29:53;;;;;;;16.45;6.82;;;;;;;-146.58;100.00;69501.63;4996820;28;20073;-58
2022/10/06 07:32:20;;;;;;;14.77;5.78;;;;;;;-146.58;100.00;69501.63;4990467;28;20071;-58
2022/10/06 07:34:46;;;;;;;14.75;4.25;;;;;;;-146.58;100.00;69501.63;4993851;28;20501;-58
2022/10/06 07:37:11;;;;;;;15.43;5.28;;;;;;;-146.58;100.00;69501.63;4991716;28;20119;-58
2022/10/06 07:39:36;;;;;;;28.42;6.78;;;;;;;-146.58;100.00;69501.63;4992040;28;20600;-58
2022/10/06 07:42:06;;;;;;;17.92;6.35;;;;;;;-146.58;100.00;69501.63;4991864;28;20038;-58
2022/10/06 07:44:31;;;;;;;11.50;4.38;;;;;;;-146.58;100.00;69501.63;4993784;28;20113;-58
2022/10/06 07:46:56;;;;;;;10.43;3.15;;;;;;;-146.58;100.00;69501.63;4990744;28;20105;-58
2022/10/06 07:49:22;;;;;;;10.70;4.07;;;;;;;-146.58;100.00;69501.63;4989735;28;20037;-59
2022/10/06 07:51:47;;;;;;;20.10;4.82;;;;;;;12.38;100.00;163802.75;4997091;28;20022;-58
2022/10/06 07:54:13;;;;;;;14.05;4.53;;;;;;;12.68;100.00;163881.13;4990388;28;20041;-58
2022/10/06 07:56:38;;;;;;;25.50;4.90;;;;;;;12.92;100.00;163943.28;4990205;28;20027;-58
2022/10/06 07:59:03;;;;;;;16.42;4.20;;;;;;;12.97;100.00;163956.81;4993205;28;20026;-58
2022/10/06 08:01:29;;;;;;;14.38;3.80;;;;;;;13.08;100.00;163985.22;4992031;28;20033;-58
2022/10/06 08:03:54;;;;;;;24.50;5.53;;;;;;;13.12;100.00;163994.66;4974333;28;20462;-58
2022/10/06 08:06:22;;;;;;;10.48;2.85;;;;;;;13.18;100.00;164012.22;4990981;28;20038;-58
2022/10/06 08:08:48;;;;;;;26.97;5.13;;;;;;;-146.58;100.00;69501.63;4990406;28;20066;-58
2022/10/06 08:11:14;;;;;;;18.48;5.32;;;;;;;-146.58;100.00;69501.63;4992551;28;20482;-58
2022/10/06 08:13:42;;;;;;;20.45;7.20;;;;;;;-146.58;100.00;69501.63;4991553;28;20072;-56
2022/10/06 08:16:14;;;;;;;15.60;4.20;;;;;;;-146.58;100.00;69501.63;4990593;28;20121;-57
2022/10/06 08:18:40;;;;;;;15.43;4.32;;;;;;;-146.58;100.00;69501.63;4991283;28;20053;-58
2022/10/06 08:21:14;;;;;;;15.90;5.55;;;;;;;-146.58;100.00;69501.63;4993007;28;20036;-58
2022/10/06 08:23:41;;;;;;;21.70;5.80;;;;;;;-146.58;100.00;69501.63;4988473;28;20090;-59
2022/10/06 08:26:09;;;;;;;16.27;5.13;;;;;;;-146.58;100.00;69501.63;4992186;28;20482;-58
2022/10/06 08:28:35;;;;;;;14.32;4.50;;;;;;;-146.58;100.00;69501.63;4991389;28;20046;-59
2022/10/06 08:31:10;;;;;;;21.63;6.45;;;;;;;-146.58;100.00;69501.63;4991133;28;20022;-59
2022/10/06 08:33:37;;;;;;;35.20;8.00;;;;;;;-146.58;100.00;69501.63;4990985;28;20049;-58
2022/10/06 08:36:26;;;;;;;14.70;3.63;;;;;;;-146.58;100.00;69501.63;4991394;28;20026;-58
2022/10/06 08:38:51;;;;;;;16.85;5.15;;;;;;;-146.58;100.00;69501.63;4989592;28;20082;-59
2022/10/06 08:41:43;;;;;;;21.08;4.38;;;;;;;-146.58;100.00;69501.63;4992799;28;20050;-58
2022/10/06 08:44:14;;;;;;;12.55;2.97;;;;;;;-146.58;100.00;69501.63;4991174;28;20130;-59
2022/10/06 08:46:55;;;;;;;12.13;3.85;;;;;;;-146.58;100.00;69501.63;4990446;28;20636;-58
2022/10/06 08:49:23;;;;;;;9.50;4.32;;;;;;;-146.58;100.00;69501.63;4992659;28;20106;-59
2022/10/06 08:51:55;;;;;;;22.17;6.90;;;;;;;-146.58;100.00;69501.63;4990792;28;20026;-59
2022/10/06 08:54:34;;;;;;;14.85;3.92;;;;;;;-146.58;100.00;69501.63;4991195;28;20101;-58
2022/10/06 08:57:15;;;;;;;15.23;3.80;;;;;;;-146.58;100.00;69501.63;4990432;28;20108;-59
2022/10/06 08:59:45;;;;;;;12.40;3.53;;;;;;;-146.58;100.00;69501.63;4991541;28;20113;-59
2022/10/06 09:02:27;;;;;;;13.82;3.15;;;;;;;-146.58;100.00;69501.63;4989513;28;20046;-59
2022/10/06 09:04:55;;;;;;;10.07;3.58;;;;;;;-146.58;100.00;69501.63;4992581;28;20254;-59
2022/10/06 09:07:57;;;;;;;16.58;5.47;;;;;;;-146.58;100.00;69501.63;4990159;28;20046;-59
2022/10/06 09:10:43;;;;;;;19.35;5.18;;;;;;;-146.58;100.00;69501.63;4992075;28;20065;-59
2022/10/06 09:13:16;;;;;;;24.33;5.00;;;;;;;-146.58;100.00;69501.63;4990601;28;20062;-59
2022/10/06 09:16:06;;;;;;;13.55;3.65;;;;;;;-146.58;100.00;69501.63;4992002;28;20583;-59
2022/10/06 09:18:37;;;;;;;13.75;3.25;;;;;;;-146.58;100.00;69501.63;4996637;28;20042;-56
2022/10/06 09:21:10;;;;;;;12.77;3.63;;;;;;;13.18;100.00;164012.22;4993051;28;20065;-56
2022/10/06 09:23:48;;;;;;;13.02;5.03;;;;;;;18.01;100.00;165278.34;4989811;28;20125;-56
2022/10/06 09:26:28;;;;;;;14.13;4.00;;;;;;;18.12;100.00;165306.81;4991407;28;20037;-59
2022/10/06 09:28:55;;;;;;;13.55;4.13;;;;;;;17.72;100.00;165202.38;4989143;28;20077;-57
2022/10/06 09:31:30;;;;;;;14.10;4.70;;;;;;;18.13;100.00;165308.19;5000704;28;20046;-57
2022/10/06 09:34:11;;;;;;;11.75;4.85;;;;;;;18.46;100.00;165396.31;5006896;28;20069;-59
2022/10/06 09:36:59;;;;;;;11.07;2.92;;;;;;;18.44;100.00;165389.50;4992553;28;20049;-58
2022/10/06 09:39:28;;;;;;;6.97;2.60;;;;;;;17.70;100.00;165196.94;4991632;28;20038;-59
2022/10/06 09:41:54;;;;;;;10.93;3.45;;;;;;;16.79;100.00;164958.38;4989688;28;20111;-56
2022/10/06 09:44:27;;;;;;;6.35;2.70;;;;;;;16.85;100.00;164971.97;4991440;28;20092;-56
2022/10/06 09:46:53;;;;;;;15.30;3.17;;;;;;;17.15;100.00;165051.94;4989619;28;20022;-56
2022/10/06 09:49:25;;;;;;;18.10;6.72;;;;;;;17.37;100.00;165110.22;4990898;28;20078;-56
2022/10/06 09:52:13;;;;;;;14.60;4.40;;;;;;;17.07;100.00;165031.63;4993341;28;20040;-56
2022/10/06 09:54:42;;;;;;;14.20;4.93;;;;;;;16.67;100.00;164925.88;4988810;28;20030;-56
2022/10/06 09:57:13;;;;;;;14.63;3.10;;;;;;;16.07;100.00;164768.75;5001609;28;20050;-59
2022/10/06 09:59:44;;;;;;;15.85;4.53;;;;;;;16.05;100.00;164763.31;4996126;28;20481;-56
2022/10/06 10:02:39;;;;;;;8.30;2.38;;;;;;;16.05;100.00;164763.31;5001373;28;20448;-58
2022/10/06 10:05:19;;;;;;;15.98;3.10;;;;;;;16.05;100.00;164761.94;4991107;28;20463;-59
2022/10/06 10:07:47;;;;;;;18.77;4.70;;;;;;;15.83;100.00;69501.63;4992420;28;20497;-59
2022/10/06 10:10:22;;;;;;;8.95;4.63;;;;;;;-146.58;100.00;69501.63;4990963;28;20037;-59
2022/10/06 10:12:50;;;;;;;8.30;2.80;;;;;;;-146.58;100.00;69501.63;4990934;28;20066;-58
2022/10/06 10:15:18;;;;;;;7.80;3.08;;;;;;;-146.58;100.00;69501.63;4995057;28;20026;-58
2022/10/06 10:17:59;;;;;;;12.23;2.67;;;;;;;-146.58;100.00;69501.63;4989768;28;20181;-58
2022/10/06 10:20:32;;;;;;;6.68;2.67;;;;;;;-146.58;100.00;69501.63;4972400;28;20037;-58
2022/10/06 10:23:01;;;;;;;9.27;2.65;;;;;;;-146.58;100.00;69501.63;4987166;28;20065;-58
2022/10/06 10:25:32;;;;;;;15.07;3.30;;;;;;;-146.58;100.00;69501.63;4988074;28;20061;-58
2022/10/06 10:28:14;;;;;;;7.20;2.13;;;;;;;-146.58;100.00;69501.63;4986282;28;20042;-58
2022/10/06 10:31:08;;;;;;;12.85;3.35;;;;;;;-146.58;100.00;69501.63;4983636;28;20394;-58
2022/10/06 10:33:58;;;;;;;11.93;3.80;;;;;;;-146.58;100.00;69501.63;4985035;28;20038;-58
2022/10/06 10:36:33;;;;;;;17.63;4.10;;;;;;;-146.58;100.00;69501.63;4989268;28;20397;-58
2022/10/06 10:39:00;;;;;;;17.58;3.35;;;;;;;-146.58;100.00;69501.63;4989057;28;20042;-59
2022/10/06 10:41:33;;;;;;;12.57;3.78;;;;;;;-146.58;100.00;69501.63;4994527;28;20034;-59
2022/10/06 10:44:09;;;;;;;5.43;2.42;;;;;;;-146.58;100.00;69501.63;4989774;28;20486;-59
2022/10/06 10:46:50;;;;;;;15.27;3.55;;;;;;;15.82;100.00;90587.53;4992452;28;20018;-57
2022/10/06 10:49:19;;;;;;;7.25;3.00;;;;;;;-146.58;100.00;69501.63;4994193;28;20050;-58
2022/10/06 10:51:54;;;;;;;8.57;2.17;;;;;;;-146.58;100.00;69501.63;4992795;28;20034;-58
2022/10/06 10:54:26;;;;;;;8.38;2.63;;;;;;;-146.58;100.00;69501.63;4993916;28;20041;-59
2022/10/06 10:56:52;;;;;;;8.10;2.47;;;;;;;-146.58;100.00;69501.63;4993196;28;20102;-59
2022/10/06 10:59:41;;;;;;;19.58;4.05;;;;;;;-146.58;100.00;69501.63;4990344;28;20035;-58
2022/10/06 11:02:19;;;;;;;6.63;2.60;;;;;;;-146.58;100.00;69501.63;4993060;28;20039;-59
2022/10/06 11:04:49;;;;;;;14.60;4.07;;;;;;;-146.58;100.00;69501.63;4994680;28;20105;-59
2022/10/06 11:07:23;;;;;;;10.13;3.80;;;;;;;-146.58;100.00;69501.63;4992219;28;20596;-58
2022/10/06 11:10:10;;;;;;;8.23;2.67;;;;;;;-146.58;100.00;69501.63;4994703;28;20038;-58
2022/10/06 11:13:19;;;;;;;17.17;3.70;;;;;;;-146.58;100.00;69501.63;4992792;28;20034;-58
2022/10/06 11:16:10;;;;;;;7.85;2.08;;;;;;;-146.58;100.00;69501.63;4993510;28;20114;-59
2022/10/06 11:18:59;;;;;;;10.05;3.42;;;;;;;-146.58;100.00;69501.63;4992569;28;20135;-59
2022/10/06 11:21:49;;;;;;;9.52;3.30;;;;;;;-146.58;100.00;69501.63;4992594;28;20022;-59
2022/10/06 11:24:21;;;;;;;7.45;2.30;;;;;;;-146.58;100.00;69501.63;4992572;28;20108;-59
2022/10/06 11:27:13;;;;;;;14.55;4.72;;;;;;;-146.58;100.00;69501.63;4992789;28;20034;-59
2022/10/06 11:30:06;;;;;;;12.10;2.28;;;;;;;-146.58;100.00;69501.63;4998865;28;20058;-59